createdAt,value
2022-09-01T00:01:51.058Z,100302.91
2022-09-01T00:04:21.627Z,100306.22
2022-09-01T00:06:50.755Z,100306.16
2022-09-01T00:09:20.458Z,100300.13
2022-09-01T00:11:52.474Z,100300.75
2022-09-01T00:14:29.481Z,100301.31
2022-09-01T00:16:58.529Z,100299.38
2022-09-01T00:19:26.332Z,100299.41
2022-09-01T00:21:55.214Z,100303.72
2022-09-01T00:24:25.988Z,100296.84
2022-09-01T00:26:54.293Z,100301.13
2022-09-01T00:29:22.034Z,100301.38
2022-09-01T00:31:50.220Z,100298.88
2022-09-01T00:34:18.302Z,100301.72
2022-09-01T00:36:45.897Z,100299.78
2022-09-01T00:39:16.715Z,100297.91
2022-09-01T00:41:46.950Z,100305.44
2022-09-01T00:44:16.931Z,100301.09
2022-09-01T00:46:49.848Z,100296.94
2022-09-01T00:49:23.608Z,100299.53
2022-09-01T00:51:56.368Z,100301.00
2022-09-01T00:54:29.927Z,100306.28
2022-09-01T00:56:58.942Z,100303.72
2022-09-01T00:59:28.865Z,100302.59
2022-09-01T01:01:57.174Z,100300.34
2022-09-01T01:04:25.527Z,100302.53
2022-09-01T01:07:02.701Z,100297.41
2022-09-01T01:09:35.456Z,100291.63
2022-09-01T01:12:06.618Z,100292.34
2022-09-01T01:14:39.603Z,100293.13
2022-09-01T01:17:07.628Z,100288.66
2022-09-01T01:20:00.692Z,100286.75
2022-09-01T01:22:54.134Z,100291.97
2022-09-01T01:25:23.962Z,100289.84
2022-09-01T01:27:52.154Z,100291.13
2022-09-01T01:30:23.617Z,100289.91
2022-09-01T01:32:51.846Z,100290.22
2022-09-01T01:35:21.771Z,100294.59
2022-09-01T01:37:49.316Z,100295.88
2022-09-01T01:40:22.028Z,100293.00
2022-09-01T01:42:53.509Z,100296.00
2022-09-01T01:45:24.188Z,100296.84
2022-09-01T01:47:54.022Z,100287.13
2022-09-01T01:50:22.782Z,100298.78
2022-09-01T01:52:58.105Z,100299.66
2022-09-01T01:55:28.817Z,100300.63
2022-09-01T01:57:58.204Z,100301.06
2022-09-01T02:00:30.362Z,100304.16
2022-09-01T02:02:58.826Z,100313.38
2022-09-01T02:05:28.788Z,100300.31
2022-09-01T02:08:01.712Z,100308.47
2022-09-01T02:10:31.895Z,100302.75
2022-09-01T02:13:04.674Z,100301.16
2022-09-01T02:15:43.605Z,100296.84
2022-09-01T02:18:14.117Z,100306.16
2022-09-01T02:20:42.398Z,100313.72
2022-09-01T02:23:11.575Z,100306.41
2022-09-01T02:26:05.156Z,100309.09
2022-09-01T02:28:36.740Z,100298.75
2022-09-01T02:31:08.802Z,100298.50
2022-09-01T02:33:39.075Z,100305.28
2022-09-01T02:36:10.394Z,100306.78
2022-09-01T02:38:41.785Z,100308.53
2022-09-01T02:41:09.842Z,100310.50
2022-09-01T02:43:39.917Z,100309.53
2022-09-01T02:46:07.757Z,100306.31
2022-09-01T02:48:38.022Z,100304.16
2022-09-01T02:51:08.164Z,100306.75
2022-09-01T02:53:37.400Z,100310.44
2022-09-01T02:56:09.491Z,100302.53
2022-09-01T02:58:45.923Z,100302.44
2022-09-01T03:01:22.600Z,100296.19
2022-09-01T03:03:51.249Z,100303.00
2022-09-01T03:06:23.911Z,100303.84
2022-09-01T03:08:52.267Z,100304.28
2022-09-01T03:11:20.194Z,100306.22
2022-09-01T03:13:53.092Z,100302.34
2022-09-01T03:16:22.373Z,100304.38
2022-09-01T03:18:50.552Z,100304.94
2022-09-01T03:21:19.226Z,100312.88
2022-09-01T03:23:47.647Z,100312.13
2022-09-01T03:26:18.543Z,100311.59
2022-09-01T03:28:46.808Z,100310.09
2022-09-01T03:31:17.372Z,100312.44
2022-09-01T03:33:45.048Z,100312.47
2022-09-01T03:36:20.038Z,100310.50
2022-09-01T03:38:48.597Z,100309.22
2022-09-01T03:41:18.114Z,100319.66
2022-09-01T03:43:48.430Z,100312.00
2022-09-01T03:46:21.497Z,100309.00
2022-09-01T03:48:50.975Z,100311.91
2022-09-01T03:51:22.125Z,100313.50
2022-09-01T03:53:50.758Z,100304.03
2022-09-01T03:56:18.320Z,100311.22
2022-09-01T03:58:47.215Z,100302.28
2022-09-01T04:01:17.286Z,100300.16
2022-09-01T04:03:48.881Z,100299.41
2022-09-01T04:06:20.326Z,100295.38
2022-09-01T04:08:48.261Z,100296.94
2022-09-01T04:11:18.969Z,100297.81
2022-09-01T04:13:47.415Z,100298.22
2022-09-01T04:16:35.641Z,100299.88
2022-09-01T04:19:09.182Z,100304.31
2022-09-01T04:21:38.285Z,100298.59
2022-09-01T04:24:06.255Z,100298.31
2022-09-01T04:26:33.849Z,100308.41
2022-09-01T04:29:02.185Z,100295.88
2022-09-01T04:31:31.601Z,100307.75
2022-09-01T04:34:13.670Z,100297.53
2022-09-01T04:36:43.568Z,100294.25
2022-09-01T04:39:12.339Z,100293.16
2022-09-01T04:41:46.198Z,100298.31
2022-09-01T04:44:16.701Z,100295.00
2022-09-01T04:46:48.277Z,100300.94
2022-09-01T04:49:19.551Z,100302.91
2022-09-01T04:51:53.278Z,100305.81
2022-09-01T04:54:22.613Z,100307.66
2022-09-01T04:56:54.874Z,100309.06
2022-09-01T04:59:24.726Z,100303.56
2022-09-01T05:01:57.315Z,100306.47
2022-09-01T05:04:28.332Z,100305.84
2022-09-01T05:06:59.658Z,100307.25
2022-09-01T05:09:28.946Z,100301.66
2022-09-01T05:11:57.888Z,100307.38
2022-09-01T05:14:25.993Z,100302.06
2022-09-01T05:16:59.406Z,100310.56
2022-09-01T05:19:29.010Z,100305.19
2022-09-01T05:21:57.878Z,100310.44
2022-09-01T05:24:32.066Z,100299.88
2022-09-01T05:27:00.368Z,100303.84
2022-09-01T05:29:28.870Z,100309.78
2022-09-01T05:31:58.779Z,100311.53
2022-09-01T05:34:27.924Z,100308.91
2022-09-01T05:36:58.133Z,100314.94
2022-09-01T05:39:26.430Z,100311.81
2022-09-01T05:41:54.627Z,100314.22
2022-09-01T05:44:23.685Z,100316.91
2022-09-01T05:46:51.547Z,100314.59
2022-09-01T05:49:20.745Z,100314.75
2022-09-01T05:51:51.638Z,100313.22
2022-09-01T05:54:23.073Z,100319.00
2022-09-01T05:56:53.403Z,100320.09
2022-09-01T05:59:24.868Z,100323.31
2022-09-01T06:01:54.206Z,100327.28
2022-09-01T06:04:24.722Z,100318.94
2022-09-01T06:07:10.352Z,100328.41
2022-09-01T06:09:42.645Z,100326.97
2022-09-01T06:12:17.182Z,100322.28
2022-09-01T06:14:45.583Z,100319.59
2022-09-01T06:17:16.276Z,100325.50
2022-09-01T06:19:45.948Z,100334.69
2022-09-01T06:22:13.516Z,100329.94
2022-09-01T06:24:43.648Z,100333.50
2022-09-01T06:27:13.196Z,100326.72
2022-09-01T06:29:41.597Z,100329.50
2022-09-01T06:32:10.675Z,100331.31
2022-09-01T06:34:42.368Z,100341.00
2022-09-01T06:37:12.916Z,100337.47
2022-09-01T06:39:41.242Z,100338.88
2022-09-01T06:42:09.470Z,100338.13
2022-09-01T06:44:40.783Z,100340.25
2022-09-01T06:47:08.985Z,100337.81
2022-09-01T06:49:40.074Z,100345.38
2022-09-01T06:52:07.722Z,100342.13
2022-09-01T06:54:39.526Z,100345.78
2022-09-01T06:59:55.069Z,100344.69
2022-09-01T07:02:26.550Z,100339.56
2022-09-01T07:04:55.503Z,100331.72
2022-09-01T07:10:21.417Z,100339.44
2022-09-01T07:13:05.653Z,100331.44
2022-09-01T07:16:32.065Z,100341.94
2022-09-01T07:18:25.117Z,100335.44
2022-09-01T07:21:36.186Z,100333.25
2022-09-01T07:24:07.913Z,100334.97
2022-09-01T07:26:35.531Z,100338.09
2022-09-01T07:29:06.286Z,100336.50
2022-09-01T07:34:46.079Z,100341.56
2022-09-01T07:37:17.295Z,100339.50
2022-09-01T07:45:31.249Z,100336.00
2022-09-01T07:48:03.068Z,100337.00
2022-09-01T07:50:41.336Z,100332.34
2022-09-01T07:53:22.627Z,100336.91
2022-09-01T07:55:51.875Z,100335.03
2022-09-01T07:58:22.264Z,100334.31
2022-09-01T08:00:49.957Z,100325.94
2022-09-01T08:03:20.473Z,100326.56
2022-09-01T08:05:51.254Z,100328.16
2022-09-01T08:08:19.237Z,100323.00
2022-09-01T08:10:49.418Z,100328.91
2022-09-01T08:13:18.978Z,100327.06
2022-09-01T08:16:08.521Z,100327.16
2022-09-01T08:18:51.601Z,100326.81
2022-09-01T08:21:21.980Z,100329.00
2022-09-01T08:23:50.291Z,100329.63
2022-09-01T08:26:19.644Z,100332.47
2022-09-01T08:28:55.071Z,100332.94
2022-09-01T08:31:30.788Z,100335.50
2022-09-01T08:33:59.951Z,100332.69
2022-09-01T08:36:27.592Z,100338.03
2022-09-01T08:38:55.431Z,100332.84
2022-09-01T08:41:46.773Z,100333.34
2022-09-01T08:44:25.952Z,100334.50
2022-09-01T08:47:00.923Z,100328.31
2022-09-01T08:49:29.211Z,100323.13
2022-09-01T08:52:03.371Z,100329.00
2022-09-01T08:54:37.987Z,100329.00
2022-09-01T08:57:08.160Z,100322.13
2022-09-01T08:59:35.718Z,100315.63
2022-09-01T09:02:22.823Z,100320.09
2022-09-01T09:04:57.182Z,100316.22
2022-09-01T09:07:37.532Z,100318.34
2022-09-01T09:10:12.866Z,100316.81
2022-09-01T09:12:53.174Z,100309.72
2022-09-01T09:15:33.876Z,100315.84
2022-09-01T09:18:20.020Z,100312.34
2022-09-01T09:21:09.529Z,100317.34
2022-09-01T09:23:43.087Z,100306.66
2022-09-01T09:26:10.955Z,100307.25
2022-09-01T09:28:40.045Z,100307.91
2022-09-01T09:31:28.512Z,100301.06
2022-09-01T09:33:59.105Z,100296.22
2022-09-01T09:36:32.752Z,100297.03
2022-09-01T09:39:10.668Z,100299.50
2022-09-01T09:41:39.899Z,100289.25
2022-09-01T09:44:18.525Z,100297.38
2022-09-01T09:46:47.704Z,100293.53
2022-09-01T09:49:36.123Z,100299.56
2022-09-01T09:52:16.685Z,100282.69
2022-09-01T09:55:00.578Z,100275.25
2022-09-01T09:57:30.684Z,100281.56
2022-09-01T10:00:03.351Z,100273.28
2022-09-01T10:02:34.602Z,100263.69
2022-09-01T10:05:24.857Z,100274.03
2022-09-01T10:07:53.174Z,100266.03
2022-09-01T10:10:31.498Z,100255.41
2022-09-01T10:13:00.604Z,100264.69
2022-09-01T10:15:33.307Z,100248.25
2022-09-01T10:18:20.751Z,100246.50
2022-09-01T10:20:57.364Z,100249.34
2022-09-01T10:23:27.650Z,100250.72
2022-09-01T10:26:05.975Z,100246.44
2022-09-01T10:28:36.254Z,100245.28
2022-09-01T10:31:05.232Z,100239.66
2022-09-01T10:33:37.061Z,100245.91
2022-09-01T10:36:08.328Z,100247.47
2022-09-01T10:38:36.249Z,100238.31
2022-09-01T10:41:14.726Z,100239.94
2022-09-01T10:43:45.262Z,100234.16
2022-09-01T10:46:50.435Z,100236.66
2022-09-01T10:49:51.531Z,100222.72
2022-09-01T10:52:55.866Z,100228.34
2022-09-01T10:55:26.980Z,100230.41
2022-09-01T11:01:13.432Z,100223.88
2022-09-01T11:04:02.575Z,100226.38
2022-09-01T11:07:14.446Z,100219.28
2022-09-01T11:09:45.669Z,100222.00
2022-09-01T11:12:29.724Z,100225.19
2022-09-01T11:14:59.859Z,100224.38
2022-09-01T11:17:30.873Z,100220.25
2022-09-01T11:20:08.769Z,100217.25
2022-09-01T11:22:39.352Z,100210.88
2022-09-01T11:25:43.859Z,100213.59
2022-09-01T11:28:43.514Z,100214.50
2022-09-01T11:31:38.921Z,100216.84
2022-09-01T11:34:14.005Z,100216.41
2022-09-01T11:36:53.899Z,100218.97
2022-09-01T11:39:32.596Z,100210.00
2022-09-01T11:42:05.627Z,100217.34
2022-09-01T11:44:40.101Z,100201.16
2022-09-01T11:47:16.141Z,100200.72
2022-09-01T11:49:51.088Z,100207.41
2022-09-01T11:52:20.653Z,100206.03
2022-09-01T11:54:49.214Z,100203.31
2022-09-01T11:57:30.508Z,100204.69
2022-09-01T12:00:01.660Z,100204.06
2022-09-01T12:02:33.458Z,100195.63
2022-09-01T12:05:24.983Z,100201.06
2022-09-01T12:07:52.688Z,100187.81
2022-09-01T12:10:26.261Z,100189.88
2022-09-01T12:13:01.894Z,100184.94
2022-09-01T12:15:30.973Z,100181.91
2022-09-01T12:18:14.840Z,100186.53
2022-09-01T12:20:42.855Z,100175.25
2022-09-01T12:23:20.266Z,100176.72
2022-09-01T12:25:48.298Z,100178.56
2022-09-01T12:28:16.852Z,100163.31
2022-09-01T12:30:46.072Z,100170.28
2022-09-01T12:33:23.510Z,100179.34
2022-09-01T12:35:53.979Z,100167.59
2022-09-01T12:38:26.168Z,100169.34
2022-09-01T12:40:55.172Z,100165.16
2022-09-01T12:43:31.916Z,100161.94
2022-09-01T12:46:02.929Z,100155.13
2022-09-01T12:48:34.021Z,100149.50
2022-09-01T12:51:03.819Z,100154.59
2022-09-01T12:53:36.594Z,100146.75
2022-09-01T12:56:29.716Z,100154.47
2022-09-01T12:59:09.599Z,100136.53
2022-09-01T13:01:43.526Z,100137.91
2022-09-01T13:04:23.925Z,100136.88
2022-09-01T13:06:52.484Z,100137.22
2022-09-01T13:09:20.118Z,100133.50
2022-09-01T13:14:36.027Z,100129.22
2022-09-01T13:17:05.908Z,100130.44
2022-09-01T13:19:41.731Z,100135.72
2022-09-01T13:22:09.351Z,100131.63
2022-09-01T13:24:36.963Z,100129.38
2022-09-01T13:27:21.025Z,100129.38
2022-09-01T13:29:49.301Z,100117.59
2022-09-01T13:32:20.813Z,100118.50
2022-09-01T13:34:50.781Z,100112.66
2022-09-01T13:37:19.791Z,100109.56
2022-09-01T13:39:48.380Z,100116.94
2022-09-01T13:42:16.688Z,100106.84
2022-09-01T13:44:44.540Z,100114.53
2022-09-01T13:50:11.433Z,100099.88
2022-09-01T13:52:40.837Z,100101.91
2022-09-01T13:55:11.426Z,100091.13
2022-09-01T13:57:39.333Z,100098.50
2022-09-01T14:00:11.060Z,100096.94
2022-09-01T14:02:39.781Z,100095.53
2022-09-01T14:05:10.221Z,100091.06
2022-09-01T14:07:38.064Z,100098.25
2022-09-01T14:10:07.509Z,100088.69
2022-09-01T14:12:35.374Z,100086.31
2022-09-01T14:15:12.280Z,100092.16
2022-09-01T14:17:42.882Z,100088.03
2022-09-01T14:20:15.193Z,100083.56
2022-09-01T14:22:46.287Z,100089.03
2022-09-01T14:25:15.069Z,100084.22
2022-09-01T14:27:44.759Z,100079.44
2022-09-01T14:30:16.711Z,100076.34
2022-09-01T14:32:44.630Z,100081.16
2022-09-01T14:35:14.780Z,100069.22
2022-09-01T14:37:42.415Z,100065.25
2022-09-01T14:40:16.439Z,100084.97
2022-09-01T14:42:46.477Z,100080.41
2022-09-01T14:45:15.968Z,100078.84
2022-09-01T14:47:44.150Z,100072.22
2022-09-01T14:50:15.946Z,100074.94
2022-09-01T14:52:47.078Z,100078.34
2022-09-01T14:55:14.987Z,100071.03
2022-09-01T14:57:42.539Z,100059.41
2022-09-01T15:00:12.974Z,100064.00
2022-09-01T15:02:42.186Z,100060.06
2022-09-01T15:05:11.722Z,100050.03
2022-09-01T15:07:41.548Z,100050.34
2022-09-01T15:10:10.921Z,100052.22
2022-09-01T15:12:52.727Z,100053.75
2022-09-01T15:15:20.329Z,100049.84
2022-09-01T15:17:47.885Z,100047.47
2022-09-01T15:20:32.950Z,100053.44
2022-09-01T15:23:02.552Z,100035.47
2022-09-01T15:25:30.181Z,100043.19
2022-09-01T15:27:57.728Z,100046.78
2022-09-01T15:30:25.309Z,100042.00
2022-09-01T15:32:54.274Z,100037.91
2022-09-01T15:35:23.127Z,100042.00
2022-09-01T15:37:52.597Z,100043.34
2022-09-01T15:40:21.714Z,100044.88
2022-09-01T15:42:49.729Z,100040.28
2022-09-01T15:45:20.185Z,100037.41
2022-09-01T15:47:48.226Z,100034.81
2022-09-01T15:50:21.818Z,100035.84
2022-09-01T15:52:52.757Z,100026.50
2022-09-01T15:55:24.692Z,100022.22
2022-09-01T15:57:54.754Z,100022.88
2022-09-01T16:00:23.871Z,100028.84
2022-09-01T16:02:54.204Z,100025.25
2022-09-01T16:05:21.876Z,100023.41
2022-09-01T16:07:51.422Z,100030.38
2022-09-01T16:10:19.496Z,100022.56
2022-09-01T16:12:49.794Z,100019.47
2022-09-01T16:15:19.837Z,100016.91
2022-09-01T16:18:13.539Z,100017.09
2022-09-01T16:20:50.748Z,100024.22
2022-09-01T16:23:20.506Z,100017.25
2022-09-01T16:25:48.433Z,100029.38
2022-09-01T16:28:26.191Z,100014.34
2022-09-01T16:30:59.049Z,100027.63
2022-09-01T16:33:26.735Z,100009.00
2022-09-01T16:36:08.315Z,100012.88
2022-09-01T16:38:46.994Z,100010.44
2022-09-01T16:41:28.006Z,100008.91
2022-09-01T16:44:06.660Z,100015.22
2022-09-01T16:46:43.073Z,100009.72
2022-09-01T16:49:19.638Z,100010.06
2022-09-01T16:51:58.421Z,100000.53
2022-09-01T16:54:37.237Z,100009.38
2022-09-01T16:57:09.135Z,100008.63
2022-09-01T16:59:51.780Z,99997.19
2022-09-01T17:02:35.786Z,99997.88
2022-09-01T17:05:13.253Z,100014.97
2022-09-01T17:07:50.462Z,100005.38
2022-09-01T17:10:27.518Z,100005.69
2022-09-01T17:12:56.792Z,100004.19
2022-09-01T17:15:31.497Z,100009.38
2022-09-01T17:18:09.143Z,100010.22
2022-09-01T17:20:57.983Z,100012.31
2022-09-01T17:23:29.125Z,100008.09
2022-09-01T17:26:01.577Z,100017.31
2022-09-01T17:28:35.513Z,100019.75
2022-09-01T17:31:14.450Z,100018.72
2022-09-01T17:33:56.833Z,100020.06
2022-09-01T17:36:41.298Z,100015.25
2022-09-01T17:39:20.609Z,100016.34
2022-09-01T17:41:55.569Z,100012.56
2022-09-01T17:44:35.561Z,100007.53
2022-09-01T17:47:12.507Z,100011.97
2022-09-01T17:49:48.596Z,100019.44
2022-09-01T17:52:24.156Z,100012.28
2022-09-01T17:54:59.896Z,100020.75
2022-09-01T17:57:33.724Z,100014.25
2022-09-01T18:00:06.932Z,100018.06
2022-09-01T18:03:04.648Z,100015.56
2022-09-01T18:05:40.368Z,100012.38
2022-09-01T18:08:30.239Z,100014.59
2022-09-01T18:11:01.000Z,100014.59
2022-09-01T18:13:52.494Z,100019.72
2022-09-01T18:16:25.581Z,100021.50
2022-09-01T18:18:54.928Z,100007.69
2022-09-01T18:21:26.127Z,100009.94
2022-09-01T18:23:58.844Z,100016.19
2022-09-01T18:26:32.268Z,100022.72
2022-09-01T18:29:01.675Z,100023.91
2022-09-01T18:32:00.227Z,100031.69
2022-09-01T18:34:46.586Z,100024.63
2022-09-01T18:37:20.858Z,100022.75
2022-09-01T18:39:58.356Z,100028.34
2022-09-01T18:42:32.759Z,100030.94
2022-09-01T18:45:07.085Z,100050.19
2022-09-01T18:47:37.575Z,100034.31
2022-09-01T18:50:15.212Z,100039.00
2022-09-01T18:52:53.798Z,100036.19
2022-09-01T18:55:27.974Z,100034.91
2022-09-01T18:57:58.916Z,100048.06
2022-09-01T19:00:31.489Z,100044.50
2022-09-01T19:03:12.146Z,100045.66
2022-09-01T19:05:52.566Z,100045.88
2022-09-01T19:08:27.851Z,100045.16
2022-09-01T19:11:02.322Z,100046.59
2022-09-01T19:13:47.163Z,100048.81
2022-09-01T19:16:26.994Z,100061.53
2022-09-01T19:19:01.448Z,100057.44
2022-09-01T19:21:33.117Z,100050.88
2022-09-01T19:24:07.373Z,100059.88
2022-09-01T19:26:40.192Z,100058.63
2022-09-01T19:29:13.506Z,100061.75
2022-09-01T19:31:45.157Z,100064.28
2022-09-01T19:34:16.375Z,100071.06
2022-09-01T19:36:47.717Z,100068.31
2022-09-01T19:39:18.221Z,100071.31
2022-09-01T19:41:52.172Z,100075.09
2022-09-01T19:44:27.434Z,100076.94
2022-09-01T19:47:04.074Z,100072.78
2022-09-01T19:49:39.410Z,100077.06
2022-09-01T19:52:15.861Z,100074.97
2022-09-01T19:54:51.938Z,100073.53
2022-09-01T19:57:26.806Z,100074.53
2022-09-01T20:00:02.740Z,100072.78
2022-09-01T20:02:33.252Z,100070.09
2022-09-01T20:05:08.685Z,100075.34
2022-09-01T20:07:44.036Z,100068.22
2022-09-01T20:10:23.146Z,100074.69
2022-09-01T20:13:05.284Z,100068.81
2022-09-01T20:15:41.079Z,100062.56
2022-09-01T20:18:13.744Z,100069.69
2022-09-01T20:20:46.036Z,100071.69
2022-09-01T20:23:27.268Z,100066.84
2022-09-01T20:26:00.119Z,100067.00
2022-09-01T20:28:35.821Z,100069.25
2022-09-01T20:31:08.386Z,100069.41
2022-09-01T20:33:41.934Z,100065.94
2022-09-01T20:36:15.561Z,100067.09
2022-09-01T20:39:10.956Z,100063.38
2022-09-01T20:41:43.894Z,100069.22
2022-09-01T20:44:16.982Z,100061.66
2022-09-01T20:46:44.544Z,100056.50
2022-09-01T20:49:16.829Z,100055.06
2022-09-01T20:51:54.630Z,100060.59
2022-09-01T20:54:34.965Z,100070.47
2022-09-01T20:57:11.863Z,100063.63
2022-09-01T20:59:46.361Z,100068.19
2022-09-01T21:02:28.834Z,100062.72
2022-09-01T21:05:03.570Z,100065.22
2022-09-01T21:07:36.242Z,100074.56
2022-09-01T21:10:15.542Z,100075.25
2022-09-01T21:12:49.644Z,100076.44
2022-09-01T21:15:30.114Z,100072.88
2022-09-01T21:18:12.560Z,100073.41
2022-09-01T21:20:56.705Z,100077.25
2022-09-01T21:23:26.124Z,100074.50
2022-09-01T21:25:55.233Z,100074.22
2022-09-01T21:28:26.307Z,100074.31
2022-09-01T21:30:57.097Z,100072.50
2022-09-01T21:33:27.120Z,100071.31
2022-09-01T21:35:55.221Z,100070.72
2022-09-01T21:38:23.020Z,100066.91
2022-09-01T21:40:52.962Z,100064.41
2022-09-01T21:43:24.759Z,100066.88
2022-09-01T21:45:52.683Z,100071.00
2022-09-01T21:48:20.852Z,100068.84
2022-09-01T21:50:48.559Z,100058.09
2022-09-01T21:53:16.210Z,100069.03
2022-09-01T21:55:43.834Z,100067.38
2022-09-01T21:58:11.699Z,100063.88
2022-09-01T22:00:43.234Z,100066.28
2022-09-01T22:03:12.023Z,100063.88
2022-09-01T22:05:42.164Z,100059.25
2022-09-01T22:08:12.038Z,100058.56
2022-09-01T22:10:44.575Z,100062.16
2022-09-01T22:13:12.289Z,100051.63
2022-09-01T22:15:45.305Z,100049.53
2022-09-01T22:18:14.153Z,100056.88
2022-09-01T22:20:42.238Z,100046.88
2022-09-01T22:23:10.666Z,100048.75
2022-09-01T22:25:42.272Z,100048.22
2022-09-01T22:28:10.686Z,100051.84
2022-09-01T22:30:44.444Z,100046.34
2022-09-01T22:33:15.926Z,100053.53
2022-09-01T22:35:44.405Z,100052.56
2022-09-01T22:38:12.632Z,100050.47
2022-09-01T22:40:44.650Z,100047.69
2022-09-01T22:43:12.293Z,100050.28
2022-09-01T22:45:42.128Z,100050.13
2022-09-01T22:48:09.878Z,100044.72
2022-09-01T22:50:40.930Z,100052.03
2022-09-01T22:53:09.309Z,100045.66
2022-09-01T22:55:37.910Z,100049.72
2022-09-01T22:58:06.747Z,100039.38
2022-09-01T23:00:35.055Z,100040.16
2022-09-01T23:03:03.226Z,100041.25
2022-09-01T23:05:31.394Z,100041.38
2022-09-01T23:08:00.286Z,100035.22
2022-09-01T23:10:28.586Z,100032.75
2022-09-01T23:12:56.386Z,100031.22
2022-09-01T23:15:23.939Z,100028.31
2022-09-01T23:17:51.514Z,100031.50
2022-09-01T23:20:19.105Z,100020.16
2022-09-01T23:22:47.248Z,100018.34
2022-09-01T23:25:17.316Z,100021.66
2022-09-01T23:27:44.906Z,100015.97
2022-09-01T23:30:15.232Z,100026.84
2022-09-01T23:32:42.919Z,100018.72
2022-09-01T23:35:11.672Z,100015.88
2022-09-01T23:37:39.284Z,100018.50
2022-09-01T23:40:08.941Z,100018.72
2022-09-01T23:42:37.859Z,100019.44
2022-09-01T23:45:06.764Z,100015.06
2022-09-01T23:47:35.591Z,100012.16
2022-09-01T23:50:03.402Z,100007.97
2022-09-01T23:52:31.201Z,100009.34
2022-09-01T23:54:59.708Z,100008.97
2022-09-01T23:57:27.435Z,100007.28
2022-09-01T23:59:58.091Z,100007.03
